createdAt,value
2018-03-24T00:18:33.033Z,16.83
2018-03-24T00:39:03.800Z,16.20
2018-03-24T00:41:33.016Z,16.50
2018-03-24T00:44:01.288Z,16.33
2018-03-24T01:04:34.071Z,16.27
2018-03-24T01:07:02.331Z,16.47
2018-03-24T01:09:30.608Z,16.70
2018-03-24T01:30:02.917Z,16.10
2018-03-24T01:32:31.187Z,18.77
2018-03-24T01:34:59.469Z,18.77
2018-03-24T01:55:31.550Z,16.70
2018-03-24T01:57:59.860Z,15.67
2018-03-24T02:00:28.099Z,17.80
2018-03-24T02:02:56.621Z,17.57
2018-03-24T02:05:24.925Z,18.53
2018-03-24T02:07:53.220Z,18.90
2018-03-24T02:28:27.289Z,16.10
2018-03-24T02:30:55.534Z,17.10
2018-03-24T02:33:23.825Z,14.90
2018-03-24T02:35:52.810Z,18.03
2018-03-24T02:38:21.885Z,17.47
2018-03-24T02:40:50.120Z,18.07
2018-03-24T02:43:18.678Z,15.67
2018-03-24T02:45:47.682Z,17.07
2018-03-24T02:48:15.964Z,17.83
2018-03-24T02:50:44.302Z,15.50
2018-03-24T02:53:12.609Z,18.10
2018-03-24T02:55:40.912Z,15.40
2018-03-24T02:58:10.104Z,17.80
2018-03-24T03:00:38.391Z,17.70
2018-03-24T03:03:06.649Z,18.77
2018-03-24T03:05:35.686Z,15.40
2018-03-24T03:08:03.992Z,18.00
2018-03-24T03:10:32.232Z,18.00
2018-03-24T03:13:00.499Z,17.20
2018-03-24T03:33:33.717Z,15.83
2018-03-24T03:36:02.773Z,16.20
2018-03-24T03:38:31.041Z,15.63
2018-03-24T03:40:59.299Z,14.70
2018-03-24T03:43:27.819Z,16.63
2018-03-24T03:45:56.133Z,16.33
2018-03-24T03:48:25.134Z,13.83
2018-03-24T04:08:56.291Z,14.27
2018-03-24T04:11:25.335Z,16.30
2018-03-24T04:13:53.619Z,14.60
2018-03-24T04:16:21.912Z,16.00
2018-03-24T04:18:50.183Z,14.77
2018-03-24T04:21:18.480Z,16.97
2018-03-24T04:23:46.781Z,14.27
2018-03-24T04:26:15.143Z,14.87
2018-03-24T04:46:45.167Z,13.60
2018-03-24T04:49:13.450Z,14.67
2018-03-24T04:51:41.732Z,13.73
2018-03-24T04:54:10.025Z,15.87
2018-03-24T04:56:38.444Z,13.60
2018-03-24T05:17:08.435Z,17.83
2018-03-24T05:19:36.732Z,15.93
2018-03-24T05:22:05.037Z,16.70
2018-03-24T05:24:34.116Z,15.97
2018-03-24T05:27:02.484Z,18.00
2018-03-24T05:29:30.774Z,15.77
2018-03-24T05:31:59.501Z,14.67
2018-03-24T05:34:28.573Z,15.77
2018-03-24T05:36:57.604Z,14.43
2018-03-24T05:39:25.979Z,16.00
2018-03-24T05:41:55.085Z,13.53
2018-03-24T05:44:24.098Z,16.10
2018-03-24T06:04:55.026Z,15.77
2018-03-24T06:07:24.112Z,14.20
2018-03-24T06:09:52.421Z,15.90
2018-03-24T06:12:21.460Z,13.40
2018-03-24T06:14:49.743Z,16.00
2018-03-24T06:17:18.020Z,14.87
2018-03-24T06:37:47.368Z,17.50
2018-03-24T06:58:20.089Z,22.53
2018-03-24T07:00:48.590Z,19.10
2018-03-24T07:03:16.922Z,22.67
2018-03-24T07:23:55.948Z,19.83
2018-03-24T07:26:24.241Z,21.30
2018-03-24T07:28:52.668Z,21.47
2018-03-24T07:31:21.237Z,21.13
2018-03-24T07:33:49.534Z,21.40
2018-03-24T07:36:17.843Z,20.27
2018-03-24T07:38:46.347Z,21.07
2018-03-24T07:41:14.579Z,21.67
2018-03-24T07:43:42.864Z,23.03
2018-03-24T07:46:11.302Z,22.90
2018-03-24T08:06:41.265Z,20.40
2018-03-24T08:09:09.771Z,19.53
2018-03-24T08:29:39.984Z,16.43
2018-03-24T08:32:08.296Z,15.10
2018-03-24T08:34:36.536Z,15.10
2018-03-24T08:37:04.841Z,15.83
2018-03-24T08:39:33.329Z,15.53
2018-03-24T09:00:03.054Z,13.47
2018-03-24T09:20:35.707Z,10.60
2018-03-24T09:41:07.182Z,7.97
2018-03-24T09:43:35.618Z,8.50
2018-03-24T09:46:03.850Z,8.37
2018-03-24T09:48:32.135Z,7.67
2018-03-24T09:51:00.798Z,7.47
2018-03-24T09:53:29.085Z,6.70
2018-03-24T09:55:58.112Z,6.43
2018-03-24T09:58:26.523Z,7.27
2018-03-24T10:00:54.792Z,6.97
2018-03-24T10:03:23.266Z,6.43
2018-03-24T10:05:51.788Z,7.77
2018-03-24T10:08:20.040Z,7.37
2018-03-24T10:10:48.291Z,7.03
2018-03-24T10:13:16.566Z,7.10
2018-03-24T10:15:44.884Z,5.90
2018-03-24T10:18:13.169Z,6.37
2018-03-24T10:20:58.335Z,6.30
2018-03-24T10:23:47.375Z,6.10
2018-03-24T10:26:15.885Z,6.40
2018-03-24T10:28:44.171Z,6.10
2018-03-24T10:31:12.427Z,6.07
2018-03-24T10:33:46.353Z,6.10
2018-03-24T10:36:14.581Z,7.10
2018-03-24T10:56:46.430Z,7.23
2018-03-24T10:59:14.646Z,7.63
2018-03-24T11:19:46.021Z,8.13
2018-03-24T11:22:14.265Z,8.60
2018-03-24T11:24:43.349Z,8.50
2018-03-24T11:27:11.602Z,7.37
2018-03-24T11:29:40.704Z,7.70
2018-03-24T11:32:08.996Z,8.20
2018-03-24T11:34:37.232Z,7.97
2018-03-24T11:37:05.572Z,8.47
2018-03-24T11:39:33.874Z,8.13
2018-03-24T11:42:02.532Z,7.70
2018-03-24T11:44:30.829Z,8.27
2018-03-24T11:46:59.049Z,7.87
2018-03-24T11:49:27.538Z,8.43
2018-03-24T12:09:59.447Z,7.67
2018-03-24T12:12:27.949Z,8.03
2018-03-24T12:33:01.581Z,8.13
2018-03-24T12:35:30.088Z,8.00
2018-03-24T12:37:58.352Z,8.37
2018-03-24T12:40:26.852Z,8.47
2018-03-24T13:01:00.040Z,7.70
2018-03-24T13:21:32.132Z,8.03
2018-03-24T13:24:00.616Z,7.47
2018-03-24T13:44:30.729Z,8.33
2018-03-24T14:05:02.000Z,8.93
2018-03-24T14:07:30.288Z,8.53
2018-03-24T14:28:00.757Z,9.33
2018-03-24T14:30:29.026Z,8.57
2018-03-24T14:32:57.293Z,8.63
2018-03-24T14:35:25.720Z,8.47
2018-03-24T14:55:57.256Z,8.50
2018-03-24T14:58:25.556Z,8.57
2018-03-24T15:00:53.807Z,9.33
2018-03-24T15:03:22.100Z,8.23
2018-03-24T15:05:50.379Z,8.40
2018-03-24T15:08:18.691Z,8.63
2018-03-24T15:10:46.961Z,8.63
2018-03-24T15:13:15.406Z,8.73
2018-03-24T15:15:43.717Z,8.80
2018-03-24T15:18:12.017Z,8.87
2018-03-24T15:38:42.628Z,8.67
2018-03-24T15:59:14.740Z,9.40
2018-03-24T16:01:43.028Z,9.13
2018-03-24T16:04:11.419Z,9.33
2018-03-24T16:06:40.492Z,9.03
2018-03-24T16:27:09.917Z,9.17
2018-03-24T16:47:42.714Z,10.07
2018-03-24T16:50:11.224Z,10.20
2018-03-24T16:52:39.455Z,10.60
2018-03-24T16:55:07.773Z,10.30
2018-03-24T17:15:38.746Z,10.50
2018-03-24T17:18:07.172Z,10.53
2018-03-24T17:38:36.151Z,11.80
2018-03-24T17:41:05.326Z,12.73
2018-03-24T17:43:33.606Z,12.00
2018-03-24T18:04:05.404Z,12.37
2018-03-24T18:24:37.137Z,12.67
2018-03-24T18:45:10.883Z,13.30
2018-03-24T18:47:39.119Z,14.60
2018-03-24T18:50:08.202Z,14.60
2018-03-24T18:52:36.677Z,13.63
2018-03-24T18:55:04.947Z,14.70
2018-03-24T18:57:33.231Z,15.83
2018-03-24T19:00:01.702Z,18.10
2018-03-24T19:02:30.015Z,21.30
2018-03-24T19:04:58.315Z,17.63
2018-03-24T19:07:26.804Z,15.27
2018-03-24T19:27:57.968Z,16.00
2018-03-24T19:48:27.607Z,14.70
2018-03-24T19:50:56.606Z,14.90
2018-03-24T19:53:24.895Z,14.33
2018-03-24T19:55:53.336Z,14.13
2018-03-24T20:16:27.181Z,15.57
2018-03-24T20:18:56.779Z,14.77
2018-03-24T20:21:25.059Z,15.60
2018-03-24T20:23:53.423Z,15.77
2018-03-24T20:26:22.055Z,17.13
2018-03-24T20:28:51.232Z,17.00
2018-03-24T20:31:19.570Z,17.47
2018-03-24T20:33:48.063Z,16.23
2018-03-24T20:36:16.340Z,17.40
2018-03-24T20:38:44.578Z,17.87
2018-03-24T20:41:13.989Z,17.97
2018-03-24T20:43:42.264Z,17.70
2018-03-24T20:46:10.535Z,17.07
2018-03-24T20:48:38.803Z,16.53
2018-03-24T20:51:07.079Z,16.97
2018-03-24T20:53:35.351Z,16.77
2018-03-24T20:56:03.652Z,17.10
2018-03-24T20:58:33.387Z,17.17
2018-03-24T21:01:01.656Z,17.27
2018-03-24T21:03:30.049Z,17.83
2018-03-24T21:05:59.088Z,16.30
2018-03-24T21:08:27.393Z,17.60
2018-03-24T21:10:55.873Z,16.73
2018-03-24T21:31:29.160Z,16.43
2018-03-24T21:33:57.575Z,17.97
2018-03-24T21:36:25.814Z,17.47
2018-03-24T21:56:57.690Z,16.87
2018-03-24T21:59:26.730Z,17.80
2018-03-24T22:01:54.975Z,17.27
2018-03-24T22:04:23.238Z,18.00
2018-03-24T22:06:51.548Z,16.33
2018-03-24T22:09:19.808Z,17.07
2018-03-24T22:11:48.322Z,16.57
2018-03-24T22:14:16.602Z,16.37
2018-03-24T22:16:44.884Z,15.60
2018-03-24T22:37:16.516Z,15.60
2018-03-24T22:39:45.659Z,16.00
2018-03-24T22:42:14.975Z,16.83
2018-03-24T23:02:46.706Z,17.33
2018-03-24T23:05:15.744Z,17.43
2018-03-24T23:07:44.011Z,16.70
2018-03-24T23:10:12.668Z,16.60
2018-03-24T23:12:41.658Z,16.73
2018-03-24T23:15:10.712Z,17.10
2018-03-24T23:17:39.043Z,17.57
2018-03-24T23:38:08.171Z,15.90
2018-03-24T23:40:37.406Z,16.73
2018-03-24T23:43:05.675Z,15.27
2018-03-24T23:45:34.018Z,16.90
2018-03-24T23:48:03.097Z,16.23
2018-03-24T23:50:31.366Z,17.33
2018-03-24T23:52:59.627Z,16.23
2018-03-24T23:55:28.036Z,16.10
2018-03-24T23:57:56.320Z,17.03
